createdAt,value
2022-11-15T00:00:35.160Z,98.60
2022-11-15T00:03:01.540Z,98.48
2022-11-15T00:05:27.941Z,98.34
2022-11-15T00:07:55.972Z,98.36
2022-11-15T00:10:22.675Z,98.16
2022-11-15T00:12:49.070Z,99.11
2022-11-15T00:15:15.600Z,99.08
2022-11-15T00:17:42.029Z,99.23
2022-11-15T00:20:09.012Z,98.83
2022-11-15T00:22:35.420Z,98.69
2022-11-15T00:25:01.806Z,98.47
2022-11-15T00:27:28.227Z,98.40
2022-11-15T00:29:54.642Z,98.22
2022-11-15T00:32:21.060Z,98.04
2022-11-15T00:34:47.461Z,97.92
2022-11-15T00:37:13.876Z,97.86
2022-11-15T00:39:40.287Z,97.83
2022-11-15T00:42:06.683Z,98.18
2022-11-15T00:44:34.167Z,97.61
2022-11-15T00:47:00.554Z,97.38
2022-11-15T00:49:26.978Z,97.68
2022-11-15T00:51:53.395Z,97.34
2022-11-15T00:54:19.801Z,97.03
2022-11-15T00:56:46.226Z,97.20
2022-11-15T00:59:12.635Z,97.33
2022-11-15T01:01:39.057Z,97.50
2022-11-15T01:04:05.446Z,97.11
2022-11-15T01:06:31.869Z,96.82
2022-11-15T01:08:58.312Z,96.98
2022-11-15T01:11:24.724Z,97.17
2022-11-15T01:13:51.107Z,97.51
2022-11-15T01:16:18.315Z,97.65
2022-11-15T01:18:45.107Z,97.64
2022-11-15T01:21:14.903Z,97.43
2022-11-15T01:23:41.242Z,97.67
2022-11-15T01:26:08.862Z,97.93
2022-11-15T01:28:36.445Z,97.83
2022-11-15T01:31:04.271Z,97.75
2022-11-15T01:33:31.036Z,98.15
2022-11-15T01:35:57.702Z,98.60
2022-11-15T01:38:24.134Z,98.26
2022-11-15T01:40:50.527Z,98.13
2022-11-15T01:43:36.552Z,98.63
2022-11-15T01:46:11.981Z,98.15
2022-11-15T01:48:38.359Z,98.42
2022-11-15T01:51:08.686Z,99.16
2022-11-15T01:53:35.113Z,98.53
2022-11-15T01:56:03.790Z,98.90
2022-11-15T01:58:30.187Z,98.82
2022-11-15T02:00:56.650Z,98.48
2022-11-15T02:03:23.499Z,98.54
2022-11-15T02:05:49.989Z,98.85
2022-11-15T02:08:16.374Z,99.15
2022-11-15T02:10:42.829Z,98.86
2022-11-15T02:13:09.270Z,98.82
2022-11-15T02:15:39.988Z,99.10
2022-11-15T02:18:25.822Z,99.22
2022-11-15T02:21:07.081Z,98.85
2022-11-15T02:23:42.624Z,99.36
2022-11-15T02:26:27.772Z,99.07
2022-11-15T02:29:00.063Z,99.10
2022-11-15T02:31:31.072Z,99.30
2022-11-15T02:34:07.726Z,99.16
2022-11-15T02:36:35.593Z,99.64
2022-11-15T02:39:34.039Z,99.28
2022-11-15T02:42:08.655Z,99.70
2022-11-15T02:44:38.175Z,99.49
2022-11-15T02:47:08.819Z,99.79
2022-11-15T02:49:35.358Z,99.40
2022-11-15T02:52:01.815Z,99.34
2022-11-15T02:54:31.156Z,99.29
2022-11-15T02:57:01.805Z,99.71
2022-11-15T02:59:33.818Z,99.96
2022-11-15T03:02:21.531Z,99.65
2022-11-15T03:05:21.135Z,99.65
2022-11-15T03:08:00.872Z,99.79
2022-11-15T03:10:43.708Z,100.00
2022-11-15T03:13:24.748Z,100.00
2022-11-15T03:15:57.331Z,100.00
2022-11-15T03:18:31.024Z,100.00
2022-11-15T03:20:58.955Z,99.92
2022-11-15T03:23:25.384Z,100.00
2022-11-15T03:25:51.876Z,100.00
2022-11-15T03:28:23.301Z,100.00
2022-11-15T03:30:49.693Z,100.00
2022-11-15T03:33:16.098Z,100.00
2022-11-15T03:35:44.137Z,100.00
2022-11-15T03:38:13.483Z,100.00
2022-11-15T03:40:41.886Z,100.00
2022-11-15T03:43:11.365Z,100.00
2022-11-15T03:46:10.399Z,100.00
2022-11-15T03:48:40.661Z,100.00
2022-11-15T03:51:07.062Z,100.00
2022-11-15T03:53:33.836Z,100.00
2022-11-15T03:56:00.443Z,100.00
2022-11-15T03:58:26.838Z,100.00
2022-11-15T04:00:53.290Z,100.00
2022-11-15T04:03:19.717Z,100.00
2022-11-15T04:05:46.121Z,100.00
2022-11-15T04:08:12.510Z,100.00
2022-11-15T04:10:39.021Z,100.00
2022-11-15T04:13:05.429Z,100.00
2022-11-15T04:15:31.854Z,100.00
2022-11-15T04:17:58.326Z,100.00
2022-11-15T04:20:31.205Z,100.00
2022-11-15T04:22:58.082Z,100.00
2022-11-15T04:25:28.398Z,100.00
2022-11-15T04:27:57.627Z,100.00
2022-11-15T04:30:24.042Z,100.00
2022-11-15T04:32:50.448Z,100.00
2022-11-15T04:35:16.885Z,99.77
2022-11-15T04:37:48.941Z,99.83
2022-11-15T04:40:16.025Z,99.72
2022-11-15T04:42:42.795Z,99.58
2022-11-15T04:45:10.011Z,99.76
2022-11-15T04:47:36.430Z,99.83
2022-11-15T04:50:02.933Z,100.00
2022-11-15T04:52:29.329Z,99.95
2022-11-15T04:54:55.765Z,99.70
2022-11-15T04:57:22.172Z,100.00
2022-11-15T04:59:48.742Z,100.00
2022-11-15T05:02:15.179Z,99.76
2022-11-15T05:04:41.571Z,100.00
2022-11-15T05:07:08.035Z,100.00
2022-11-15T05:09:34.458Z,99.71
2022-11-15T05:12:00.887Z,99.79
2022-11-15T05:14:27.284Z,99.79
2022-11-15T05:16:53.698Z,99.76
2022-11-15T05:19:20.108Z,99.55
2022-11-15T05:21:46.523Z,99.65
2022-11-15T05:24:12.934Z,99.17
2022-11-15T05:26:39.359Z,99.33
2022-11-15T05:29:05.766Z,98.83
2022-11-15T05:31:32.156Z,99.32
2022-11-15T05:33:58.557Z,98.56
2022-11-15T05:36:37.867Z,98.76
2022-11-15T05:39:05.162Z,99.17
2022-11-15T05:41:38.725Z,99.11
2022-11-15T05:44:06.724Z,98.79
2022-11-15T05:46:33.099Z,99.12
2022-11-15T05:48:59.519Z,98.66
2022-11-15T05:51:25.948Z,99.14
2022-11-15T05:53:52.345Z,99.12
2022-11-15T05:56:18.805Z,99.24
2022-11-15T05:58:45.208Z,98.39
2022-11-15T06:01:11.730Z,98.48
2022-11-15T06:03:38.132Z,98.66
2022-11-15T06:06:04.570Z,98.98
2022-11-15T06:08:30.990Z,98.42
2022-11-15T06:10:57.406Z,98.29
2022-11-15T06:13:26.647Z,98.71
2022-11-15T06:15:56.533Z,98.07
2022-11-15T06:18:22.916Z,97.89
2022-11-15T06:20:49.310Z,97.94
2022-11-15T06:23:15.715Z,98.39
2022-11-15T06:25:42.140Z,98.25
2022-11-15T06:28:08.534Z,98.52
2022-11-15T06:30:34.945Z,97.86
2022-11-15T06:33:02.269Z,98.46
2022-11-15T06:35:28.804Z,97.79
2022-11-15T06:37:55.466Z,98.08
2022-11-15T06:40:21.918Z,97.21
2022-11-15T06:42:48.318Z,97.83
2022-11-15T06:45:14.826Z,97.99
2022-11-15T06:47:47.615Z,98.05
2022-11-15T06:50:14.219Z,97.72
2022-11-15T06:52:40.660Z,97.34
2022-11-15T06:55:07.837Z,97.80
2022-11-15T06:57:34.254Z,97.99
2022-11-15T07:00:00.681Z,98.03
2022-11-15T07:02:27.118Z,97.86
2022-11-15T07:04:53.542Z,97.39
2022-11-15T07:07:20.184Z,97.03
2022-11-15T07:09:46.698Z,97.28
2022-11-15T07:12:13.149Z,97.85
2022-11-15T07:14:39.567Z,97.64
2022-11-15T07:17:05.987Z,97.18
2022-11-15T07:19:32.838Z,97.32
2022-11-15T07:21:59.245Z,97.89
2022-11-15T07:24:26.912Z,97.34
2022-11-15T07:26:53.508Z,97.91
2022-11-15T07:29:20.014Z,97.17
2022-11-15T07:31:46.533Z,97.62
2022-11-15T07:34:12.935Z,97.15
2022-11-15T07:36:39.342Z,97.33
2022-11-15T07:39:05.861Z,96.52
2022-11-15T07:41:33.656Z,96.87
2022-11-15T07:44:00.308Z,97.31
2022-11-15T07:46:26.826Z,97.48
2022-11-15T07:48:53.243Z,97.15
2022-11-15T07:51:19.646Z,97.12
2022-11-15T07:53:46.144Z,96.71
2022-11-15T07:56:12.740Z,96.39
2022-11-15T07:58:39.212Z,96.63
2022-11-15T08:01:06.533Z,96.37
2022-11-15T08:03:33.490Z,96.83
2022-11-15T08:06:00.453Z,97.21
2022-11-15T08:08:27.012Z,96.60
2022-11-15T08:10:53.604Z,96.30
2022-11-15T08:13:27.625Z,96.85
2022-11-15T08:15:59.133Z,96.97
2022-11-15T08:18:25.595Z,96.79
2022-11-15T08:20:52.042Z,96.79
2022-11-15T08:23:18.517Z,96.66
2022-11-15T08:25:45.124Z,96.43
2022-11-15T08:28:11.805Z,96.82
2022-11-15T08:30:39.084Z,96.41
2022-11-15T08:33:05.532Z,96.64
2022-11-15T08:35:31.939Z,96.27
2022-11-15T08:37:58.371Z,96.33
2022-11-15T08:40:24.937Z,95.65
2022-11-15T08:42:51.471Z,95.98
2022-11-15T08:45:17.889Z,96.57
2022-11-15T08:47:45.674Z,96.13
2022-11-15T08:50:13.843Z,95.43
2022-11-15T08:52:40.259Z,95.61
2022-11-15T08:55:07.131Z,95.30
2022-11-15T08:57:33.531Z,95.85
2022-11-15T08:59:59.987Z,95.78
2022-11-15T09:02:26.414Z,95.63
2022-11-15T09:04:52.839Z,95.57
2022-11-15T09:07:19.365Z,94.87
2022-11-15T09:09:45.852Z,94.72
2022-11-15T09:12:12.302Z,94.88
2022-11-15T09:14:38.728Z,95.34
2022-11-15T09:17:08.386Z,95.60
2022-11-15T09:19:34.846Z,95.20
2022-11-15T09:22:01.529Z,95.25
2022-11-15T09:24:27.939Z,94.23
2022-11-15T09:26:54.333Z,94.06
2022-11-15T09:29:20.778Z,94.09
2022-11-15T09:31:47.192Z,93.65
2022-11-15T09:34:13.645Z,93.82
2022-11-15T09:36:40.058Z,93.30
2022-11-15T09:39:06.612Z,93.72
2022-11-15T09:41:53.039Z,93.69
2022-11-15T09:44:38.830Z,93.38
2022-11-15T09:47:20.153Z,92.88
2022-11-15T09:49:46.587Z,93.26
2022-11-15T09:52:13.082Z,93.16
2022-11-15T09:54:56.354Z,92.70
2022-11-15T09:57:31.170Z,93.10
2022-11-15T10:03:10.365Z,92.57
2022-11-15T10:06:04.241Z,92.89
2022-11-15T10:09:23.888Z,92.78
2022-11-15T10:11:50.679Z,92.23
2022-11-15T10:14:20.166Z,92.42
2022-11-15T10:17:10.710Z,92.31
2022-11-15T10:20:06.206Z,92.46
2022-11-15T10:22:47.103Z,92.99
2022-11-15T10:25:16.582Z,92.85
2022-11-15T10:27:43.023Z,92.22
2022-11-15T10:30:12.711Z,92.68
2022-11-15T10:32:38.963Z,92.17
2022-11-15T10:35:28.594Z,93.03
2022-11-15T10:38:08.713Z,92.68
2022-11-15T10:40:35.421Z,92.46
2022-11-15T10:43:20.031Z,92.24
2022-11-15T10:45:47.399Z,92.27
2022-11-15T10:48:13.742Z,93.02
2022-11-15T10:50:41.573Z,92.98
2022-11-15T10:53:34.284Z,92.69
2022-11-15T10:56:06.423Z,92.88
2022-11-15T10:58:40.843Z,92.88
2022-11-15T11:01:23.643Z,92.91
2022-11-15T11:04:04.680Z,92.32
2022-11-15T11:06:31.098Z,92.55
2022-11-15T11:09:02.137Z,92.62
2022-11-15T11:11:48.271Z,92.80
2022-11-15T11:14:24.581Z,92.20
2022-11-15T11:16:53.566Z,92.19
2022-11-15T11:19:53.467Z,92.49
2022-11-15T11:22:31.909Z,93.13
2022-11-15T11:25:30.285Z,92.86
2022-11-15T11:27:56.653Z,92.73
2022-11-15T11:30:25.941Z,92.68
2022-11-15T11:33:29.061Z,92.78
2022-11-15T11:36:20.331Z,92.53
2022-11-15T11:39:31.148Z,92.97
2022-11-15T11:42:41.857Z,92.18
2022-11-15T11:45:20.264Z,92.31
2022-11-15T11:48:01.731Z,92.23
2022-11-15T11:50:28.272Z,92.19
2022-11-15T11:53:04.575Z,92.14
2022-11-15T11:55:41.538Z,92.24
2022-11-15T11:58:18.367Z,92.07
2022-11-15T12:00:48.339Z,91.82
2022-11-15T12:03:25.117Z,92.08
2022-11-15T12:05:57.445Z,91.59
2022-11-15T12:08:40.835Z,91.11
2022-11-15T12:11:20.344Z,90.94
2022-11-15T12:13:48.801Z,90.34
2022-11-15T12:16:24.551Z,90.26
2022-11-15T12:18:58.077Z,89.27
2022-11-15T12:21:51.333Z,89.03
2022-11-15T12:24:42.432Z,88.80
2022-11-15T12:27:36.548Z,88.26
2022-11-15T12:30:05.546Z,88.39
2022-11-15T12:32:36.271Z,87.90
2022-11-15T12:35:04.646Z,88.16
2022-11-15T12:37:36.975Z,87.71
2022-11-15T12:40:21.479Z,87.16
2022-11-15T12:43:09.336Z,87.80
2022-11-15T12:45:37.377Z,87.16
2022-11-15T12:48:18.969Z,86.19
2022-11-15T12:50:53.461Z,82.22
2022-11-15T12:53:25.700Z,80.81
2022-11-15T12:56:04.341Z,80.07
2022-11-15T12:58:41.672Z,79.92
2022-11-15T13:01:08.479Z,81.22
2022-11-15T13:03:34.948Z,81.84
2022-11-15T13:06:03.587Z,82.71
2022-11-15T13:08:46.891Z,83.59
2022-11-15T13:11:42.812Z,84.06
2022-11-15T13:14:37.796Z,84.85
2022-11-15T13:17:13.664Z,84.95
2022-11-15T13:19:41.261Z,85.53
2022-11-15T13:22:10.857Z,85.52
2022-11-15T13:24:39.263Z,86.38
2022-11-15T13:27:19.201Z,86.12
2022-11-15T13:29:45.861Z,86.29
2022-11-15T13:32:16.142Z,86.93
2022-11-15T13:34:54.035Z,86.75
2022-11-15T13:37:23.663Z,86.92
2022-11-15T13:39:50.315Z,87.20
2022-11-15T13:42:20.567Z,87.26
2022-11-15T13:44:57.850Z,86.62
2022-11-15T13:47:26.463Z,86.93
2022-11-15T13:49:52.888Z,86.98
2022-11-15T13:52:20.601Z,87.14
2022-11-15T13:54:51.941Z,86.92
2022-11-15T13:57:35.257Z,86.95
2022-11-15T14:00:06.914Z,86.78
2022-11-15T14:02:35.211Z,87.30
2022-11-15T14:05:17.595Z,87.64
2022-11-15T14:08:03.742Z,83.79
2022-11-15T14:10:37.072Z,83.36
2022-11-15T14:13:04.336Z,80.25
2022-11-15T14:15:38.422Z,79.52
2022-11-15T14:18:05.424Z,80.51
2022-11-15T14:20:39.365Z,81.94
2022-11-15T14:23:19.817Z,82.23
2022-11-15T14:25:56.782Z,81.48
2022-11-15T14:28:23.180Z,82.22
2022-11-15T14:30:49.800Z,82.81
2022-11-15T14:33:23.257Z,83.45
2022-11-15T14:35:50.300Z,84.54
2022-11-15T14:38:16.742Z,85.70
2022-11-15T14:40:43.610Z,85.63
2022-11-15T14:43:13.189Z,86.97
2022-11-15T14:45:39.884Z,86.21
2022-11-15T14:48:06.364Z,87.28
2022-11-15T14:50:33.000Z,87.85
2022-11-15T14:52:59.419Z,87.87
2022-11-15T14:55:30.722Z,88.40
2022-11-15T14:57:57.203Z,88.52
2022-11-15T15:00:23.681Z,89.26
2022-11-15T15:02:50.420Z,89.40
2022-11-15T15:05:19.249Z,89.88
2022-11-15T15:07:46.188Z,90.22
2022-11-15T15:10:38.301Z,90.58
2022-11-15T15:12:59.640Z,90.45
2022-11-15T15:15:41.479Z,90.84
2022-11-15T15:18:07.997Z,91.22
2022-11-15T15:20:34.441Z,91.19
2022-11-15T15:23:01.013Z,92.05
2022-11-15T15:25:32.385Z,92.23
2022-11-15T15:27:59.337Z,92.42
2022-11-15T15:30:26.703Z,92.56
2022-11-15T15:32:53.377Z,92.75
2022-11-15T15:35:19.831Z,93.11
2022-11-15T15:37:46.993Z,93.18
2022-11-15T15:40:22.010Z,93.57
2022-11-15T15:42:48.982Z,94.28
2022-11-15T15:45:15.801Z,94.06
2022-11-15T15:47:42.402Z,94.38
2022-11-15T15:50:25.423Z,94.77
2022-11-15T15:52:53.129Z,95.32
2022-11-15T15:55:19.883Z,95.18
2022-11-15T15:57:46.294Z,95.11
2022-11-15T16:00:13.156Z,95.34
2022-11-15T16:02:40.983Z,95.59
2022-11-15T16:05:08.065Z,95.87
2022-11-15T16:07:35.670Z,95.64
2022-11-15T16:10:02.917Z,95.89
2022-11-15T16:12:35.761Z,95.55
2022-11-15T16:15:02.707Z,96.17
2022-11-15T16:17:34.412Z,96.33
2022-11-15T16:20:01.186Z,95.70
2022-11-15T16:22:27.606Z,96.09
2022-11-15T16:24:54.085Z,95.67
2022-11-15T16:27:21.027Z,96.21
2022-11-15T16:29:47.577Z,95.57
2022-11-15T16:32:14.204Z,95.66
2022-11-15T16:34:44.897Z,95.69
2022-11-15T16:37:23.478Z,95.73
2022-11-15T16:39:50.040Z,95.87
2022-11-15T16:42:16.479Z,95.75
2022-11-15T16:44:42.908Z,95.69
2022-11-15T16:47:18.840Z,95.77
2022-11-15T16:49:45.298Z,95.81
2022-11-15T16:52:11.771Z,95.48
2022-11-15T16:54:38.172Z,96.00
2022-11-15T16:57:04.567Z,95.35
2022-11-15T16:59:35.632Z,95.78
2022-11-15T17:02:04.511Z,96.21
2022-11-15T17:04:30.916Z,95.49
2022-11-15T17:06:57.394Z,95.85
2022-11-15T17:09:23.882Z,95.95
2022-11-15T17:11:50.536Z,95.87
2022-11-15T17:14:17.008Z,96.02
2022-11-15T17:16:43.505Z,96.21
2022-11-15T17:19:13.926Z,96.61
2022-11-15T17:21:40.387Z,96.27
2022-11-15T17:24:06.894Z,97.09
2022-11-15T17:26:37.629Z,96.28
2022-11-15T17:29:06.879Z,96.73
2022-11-15T17:31:36.574Z,97.05
2022-11-15T17:34:02.977Z,97.12
2022-11-15T17:36:29.487Z,97.31
2022-11-15T17:38:59.445Z,97.25
2022-11-15T17:41:26.312Z,97.15
2022-11-15T17:43:52.737Z,97.81
2022-11-15T17:46:20.309Z,97.53
2022-11-15T17:48:47.067Z,97.75
2022-11-15T17:51:14.810Z,98.01
2022-11-15T17:53:42.634Z,98.25
2022-11-15T17:56:13.746Z,98.62
2022-11-15T17:58:40.236Z,98.64
2022-11-15T18:01:19.846Z,98.28
2022-11-15T18:03:46.384Z,97.96
2022-11-15T18:06:12.983Z,98.64
2022-11-15T18:08:40.537Z,98.39
2022-11-15T18:11:18.410Z,98.24
2022-11-15T18:13:50.949Z,98.93
2022-11-15T18:16:20.089Z,98.51
2022-11-15T18:18:46.601Z,98.53
2022-11-15T18:21:17.316Z,98.87
2022-11-15T18:23:43.752Z,98.90
2022-11-15T18:26:11.702Z,98.79
2022-11-15T18:28:39.243Z,98.48
2022-11-15T18:31:15.920Z,98.79
2022-11-15T18:33:42.371Z,98.71
2022-11-15T18:36:11.355Z,98.98
2022-11-15T18:38:37.923Z,99.13
2022-11-15T18:41:14.788Z,98.58
2022-11-15T18:43:42.844Z,98.40
2022-11-15T18:46:14.001Z,98.71
2022-11-15T18:48:41.795Z,98.55
2022-11-15T18:51:12.804Z,98.51
2022-11-15T18:53:39.590Z,98.77
2022-11-15T18:56:07.764Z,98.83
2022-11-15T18:58:36.822Z,98.45
2022-11-15T19:01:04.764Z,98.42
2022-11-15T19:03:35.195Z,98.15
2022-11-15T19:06:13.443Z,98.07
2022-11-15T19:08:40.378Z,97.64
2022-11-15T19:11:08.355Z,97.90
2022-11-15T19:13:35.397Z,97.67
2022-11-15T19:16:02.670Z,97.76
2022-11-15T19:18:29.261Z,97.61
2022-11-15T19:20:55.945Z,97.69
2022-11-15T19:23:23.182Z,97.50
2022-11-15T19:25:56.665Z,97.46
2022-11-15T19:28:23.258Z,97.35
2022-11-15T19:30:49.701Z,97.50
2022-11-15T19:33:16.434Z,97.44
2022-11-15T19:35:43.327Z,97.32
2022-11-15T19:38:09.752Z,97.09
2022-11-15T19:40:36.467Z,97.34
2022-11-15T19:43:02.878Z,97.06
2022-11-15T19:45:29.351Z,97.10
2022-11-15T19:47:55.782Z,97.66
2022-11-15T19:50:22.197Z,97.34
2022-11-15T19:52:48.641Z,97.31
2022-11-15T19:55:15.242Z,96.88
2022-11-15T19:57:41.895Z,96.90
2022-11-15T20:00:09.218Z,96.12
2022-11-15T20:02:35.981Z,96.39
2022-11-15T20:05:04.570Z,95.96
2022-11-15T20:07:31.089Z,96.33
2022-11-15T20:09:57.926Z,96.59
2022-11-15T20:12:24.342Z,96.01
2022-11-15T20:14:50.772Z,96.35
2022-11-15T20:17:18.342Z,96.21
2022-11-15T20:19:44.900Z,96.21
2022-11-15T20:22:11.495Z,96.12
2022-11-15T20:24:38.016Z,95.79
2022-11-15T20:27:04.435Z,95.34
2022-11-15T20:29:30.813Z,95.49
2022-11-15T20:31:57.417Z,95.32
2022-11-15T20:34:23.820Z,94.98
2022-11-15T20:36:50.234Z,95.08
2022-11-15T20:39:16.711Z,94.86
2022-11-15T20:41:43.360Z,94.75
2022-11-15T20:44:10.031Z,94.54
2022-11-15T20:46:36.623Z,94.42
2022-11-15T20:49:03.018Z,94.16
2022-11-15T20:51:29.498Z,94.21
2022-11-15T20:53:55.905Z,94.44
2022-11-15T20:56:22.560Z,94.15
2022-11-15T20:58:49.194Z,94.16
2022-11-15T21:01:16.078Z,93.80
2022-11-15T21:03:42.723Z,93.98
2022-11-15T21:06:09.880Z,94.00
2022-11-15T21:08:36.300Z,94.02
2022-11-15T21:11:02.837Z,94.21
2022-11-15T21:13:29.248Z,93.54
2022-11-15T21:15:58.643Z,93.37
2022-11-15T21:18:25.082Z,93.55
2022-11-15T21:20:51.797Z,93.21
2022-11-15T21:23:19.476Z,93.59
2022-11-15T21:25:52.128Z,93.65
2022-11-15T21:28:19.381Z,93.51
2022-11-15T21:30:55.971Z,93.39
2022-11-15T21:33:22.732Z,93.81
2022-11-15T21:35:50.051Z,93.29
2022-11-15T21:38:16.709Z,93.47
2022-11-15T21:40:43.142Z,93.05
2022-11-15T21:43:09.749Z,93.37
2022-11-15T21:45:38.418Z,93.07
2022-11-15T21:48:05.213Z,93.12
2022-11-15T21:50:31.636Z,92.54
2022-11-15T21:52:59.086Z,92.96
2022-11-15T21:55:25.474Z,92.91
2022-11-15T21:57:51.945Z,92.58
2022-11-15T22:00:18.808Z,92.66
2022-11-15T22:02:45.376Z,92.17
2022-11-15T22:05:11.917Z,92.48
2022-11-15T22:07:38.501Z,92.24
2022-11-15T22:10:05.469Z,92.33
2022-11-15T22:12:31.875Z,92.20
2022-11-15T22:14:58.394Z,91.67
2022-11-15T22:17:24.843Z,91.97
2022-11-15T22:19:52.812Z,91.73
2022-11-15T22:22:19.634Z,91.92
2022-11-15T22:24:46.654Z,92.00
2022-11-15T22:27:13.051Z,91.66
2022-11-15T22:29:39.513Z,91.15
2022-11-15T22:32:06.002Z,91.67
2022-11-15T22:34:32.492Z,91.45
2022-11-15T22:37:20.003Z,91.30
2022-11-15T22:39:45.550Z,91.01
2022-11-15T22:42:12.019Z,90.96
2022-11-15T22:44:38.557Z,90.43
2022-11-15T22:47:04.996Z,90.65
2022-11-15T22:49:31.431Z,90.91
2022-11-15T22:51:57.929Z,91.10
2022-11-15T22:54:24.365Z,90.90
2022-11-15T22:56:50.775Z,90.90
2022-11-15T22:59:17.201Z,91.01
2022-11-15T23:01:43.642Z,90.55
2022-11-15T23:04:10.056Z,90.29
2022-11-15T23:06:36.510Z,90.50
2022-11-15T23:09:02.935Z,90.48
2022-11-15T23:11:29.410Z,90.88
2022-11-15T23:13:55.880Z,90.65
2022-11-15T23:16:22.504Z,90.68
2022-11-15T23:18:58.814Z,91.09
2022-11-15T23:21:30.614Z,90.36
2022-11-15T23:23:57.627Z,90.83
2022-11-15T23:26:24.014Z,90.61
2022-11-15T23:28:50.426Z,90.27
2022-11-15T23:31:16.834Z,90.61
2022-11-15T23:33:43.264Z,90.37
2022-11-15T23:36:09.666Z,90.27
2022-11-15T23:38:36.421Z,90.49
2022-11-15T23:41:03.774Z,90.48
2022-11-15T23:43:30.305Z,90.67
2022-11-15T23:45:56.712Z,90.71
2022-11-15T23:48:23.139Z,91.04
2022-11-15T23:50:49.543Z,91.31
2022-11-15T23:53:15.996Z,91.20
2022-11-15T23:55:42.403Z,90.77
2022-11-15T23:58:08.858Z,90.77
